createdAt,value
2019-05-22T00:01:45.135Z,101020.56
2019-05-22T00:10:06.287Z,101024.22
2019-05-22T00:18:27.393Z,101023.94
2019-05-22T00:26:48.841Z,101021.89
2019-05-22T00:35:10.087Z,101029.82
2019-05-22T00:43:31.583Z,101033.05
2019-05-22T00:51:52.982Z,101033.33
2019-05-22T01:00:15.018Z,101049.09
2019-05-22T01:08:36.520Z,101048.67
2019-05-22T01:16:57.989Z,101052.64
2019-05-22T01:25:19.234Z,101056.55
2019-05-22T01:33:40.685Z,101055.96
2019-05-22T01:42:01.978Z,101060.53
2019-05-22T01:50:23.493Z,101061.72
2019-05-22T01:58:45.055Z,101067.40
2019-05-22T02:07:06.535Z,101068.45
2019-05-22T02:15:29.610Z,101065.86
2019-05-22T02:23:50.474Z,101076.05
2019-05-22T02:32:11.596Z,101085.41
2019-05-22T02:40:32.727Z,101096.11
2019-05-22T02:48:53.995Z,101101.87
2019-05-22T02:57:15.125Z,101110.72
2019-05-22T03:05:36.270Z,101109.86
2019-05-22T03:13:57.401Z,101114.56
2019-05-22T03:22:18.651Z,101123.03
2019-05-22T03:30:39.938Z,101128.98
2019-05-22T03:39:01.059Z,101118.79
2019-05-22T03:47:22.285Z,101124.66
2019-05-22T03:55:43.559Z,101144.22
2019-05-22T04:04:05.034Z,101141.39
2019-05-22T04:12:26.529Z,101144.02
2019-05-22T04:20:47.800Z,101155.84
2019-05-22T04:29:09.200Z,101162.31
2019-05-22T04:37:30.348Z,101175.33
2019-05-22T04:45:51.502Z,101183.32
2019-05-22T04:54:12.602Z,101195.88
2019-05-22T05:02:33.889Z,101200.07
2019-05-22T05:10:55.381Z,101198.93
2019-05-22T05:19:16.896Z,101200.37
2019-05-22T05:27:38.033Z,101213.38
2019-05-22T05:35:59.153Z,101213.09
2019-05-22T05:44:20.414Z,101217.64
2019-05-22T05:52:41.932Z,101231.31
2019-05-22T06:01:03.486Z,101242.93
2019-05-22T06:09:24.776Z,101235.88
2019-05-22T06:17:46.289Z,101244.55
2019-05-22T06:26:07.500Z,101251.18
2019-05-22T06:34:28.609Z,101259.52
2019-05-22T06:42:49.767Z,101270.43
2019-05-22T06:51:19.049Z,101274.81
2019-05-22T06:59:33.776Z,101279.91
2019-05-22T07:07:55.293Z,101282.53
2019-05-22T07:16:16.747Z,101290.47
2019-05-22T07:24:38.307Z,101295.81
2019-05-22T07:32:59.747Z,101297.53
2019-05-22T07:41:20.934Z,101298.73
2019-05-22T07:49:42.076Z,101303.77
2019-05-22T07:58:03.498Z,101309.64
2019-05-22T08:06:24.968Z,101305.27
2019-05-22T08:14:46.088Z,101304.30
2019-05-22T08:23:07.573Z,101307.41
2019-05-22T08:31:28.738Z,101315.63
2019-05-22T08:39:49.873Z,101313.73
2019-05-22T08:48:11.914Z,101317.05
2019-05-22T08:56:33.036Z,101317.23
2019-05-22T09:04:54.279Z,101325.59
2019-05-22T09:13:15.444Z,101328.56
2019-05-22T09:21:40.421Z,101332.22
2019-05-22T09:29:59.364Z,101337.30
2019-05-22T09:38:20.463Z,101336.83
2019-05-22T09:46:42.021Z,101340.55
2019-05-22T09:55:03.516Z,101331.67
2019-05-22T10:03:24.843Z,101335.99
2019-05-22T10:11:47.335Z,101329.09
2019-05-22T10:20:08.517Z,101337.63
2019-05-22T10:28:29.618Z,101346.78
2019-05-22T10:36:50.764Z,101340.67
2019-05-22T10:45:11.887Z,101342.33
2019-05-22T10:53:34.413Z,101336.91
2019-05-22T11:01:56.136Z,101343.58
2019-05-22T11:10:17.255Z,101330.53
2019-05-22T11:18:38.385Z,101316.86
2019-05-22T11:26:59.950Z,101319.41
2019-05-22T11:35:22.595Z,101328.27
2019-05-22T11:43:44.025Z,101325.54
2019-05-22T11:52:06.045Z,101298.68
2019-05-22T12:00:27.529Z,101305.77
2019-05-22T12:08:48.990Z,101291.69
2019-05-22T12:17:10.542Z,101292.36
2019-05-22T12:25:31.647Z,101277.25
2019-05-22T12:33:53.186Z,101273.08
2019-05-22T12:42:14.625Z,101273.97
2019-05-22T12:50:36.050Z,101264.78
2019-05-22T12:58:57.495Z,101267.06
2019-05-22T13:07:19.083Z,101253.36
2019-05-22T13:15:40.337Z,101258.84
2019-05-22T13:24:01.809Z,101251.48
2019-05-22T13:32:23.270Z,101270.61
2019-05-22T13:40:44.487Z,101267.56
2019-05-22T13:49:05.699Z,101266.92
2019-05-22T13:57:27.192Z,101262.05
2019-05-22T14:05:48.893Z,101268.15
2019-05-22T14:14:10.111Z,101268.19
2019-05-22T14:22:31.559Z,101266.41
2019-05-22T14:30:53.574Z,101264.56
2019-05-22T14:39:14.698Z,101251.59
2019-05-22T14:47:35.864Z,101253.23
2019-05-22T14:55:56.995Z,101243.57
2019-05-22T15:04:18.138Z,101244.44
2019-05-22T15:12:39.399Z,101239.98
2019-05-22T15:21:00.898Z,101234.84
2019-05-22T15:29:22.171Z,101228.85
2019-05-22T15:37:43.358Z,101226.11
2019-05-22T15:46:04.501Z,101220.78
2019-05-22T15:54:25.774Z,101214.95
2019-05-22T16:02:46.916Z,101207.75
2019-05-22T16:11:08.391Z,101213.84
2019-05-22T16:19:29.544Z,101198.58
2019-05-22T16:27:51.047Z,101203.37
2019-05-22T16:36:13.550Z,101216.34
2019-05-22T16:44:35.037Z,101208.07
2019-05-22T16:52:56.350Z,101206.32
2019-05-22T17:01:18.434Z,101210.47
2019-05-22T17:09:39.699Z,101200.33
2019-05-22T17:18:00.803Z,101199.67
2019-05-22T17:26:21.929Z,101201.97
2019-05-22T17:34:43.078Z,101197.80
2019-05-22T17:43:04.561Z,101200.81
2019-05-22T17:51:25.786Z,101204.11
2019-05-22T17:59:46.915Z,101203.72
2019-05-22T18:08:08.090Z,101197.62
2019-05-22T18:16:29.255Z,101203.72
2019-05-22T18:24:50.957Z,101213.34
2019-05-22T18:33:12.097Z,101210.67
2019-05-22T18:41:33.250Z,101213.70
2019-05-22T18:49:55.401Z,101226.03
2019-05-22T18:58:16.644Z,101223.05
2019-05-22T19:06:37.822Z,101228.60
2019-05-22T19:14:58.988Z,101223.55
2019-05-22T19:23:20.091Z,101230.70
2019-05-22T19:31:41.573Z,101241.10
2019-05-22T19:40:02.790Z,101253.49
2019-05-22T19:48:24.291Z,101260.84
2019-05-22T19:56:45.464Z,101270.22
2019-05-22T20:05:06.689Z,101276.68
2019-05-22T20:13:27.836Z,101277.37
2019-05-22T20:21:49.162Z,101278.41
2019-05-22T20:30:10.303Z,101280.47
2019-05-22T20:38:31.558Z,101288.77
2019-05-22T20:46:52.846Z,101294.87
2019-05-22T20:55:13.988Z,101301.03
2019-05-22T21:03:35.116Z,101304.92
2019-05-22T21:11:56.552Z,101309.84
2019-05-22T21:20:17.799Z,101321.90
2019-05-22T21:28:39.065Z,101334.03
2019-05-22T21:37:00.334Z,101329.74
2019-05-22T21:45:21.535Z,101337.74
2019-05-22T21:53:42.694Z,101341.03
2019-05-22T22:02:04.173Z,101336.48
2019-05-22T22:10:25.466Z,101339.99
2019-05-22T22:18:46.889Z,101343.41
2019-05-22T22:27:08.014Z,101341.44
2019-05-22T22:35:29.141Z,101346.92
2019-05-22T22:43:50.651Z,101350.88
2019-05-22T22:52:12.072Z,101350.05
2019-05-22T23:00:33.312Z,101356.96
2019-05-22T23:08:54.789Z,101356.88
2019-05-22T23:17:16.246Z,101353.95
2019-05-22T23:25:38.385Z,101354.29
2019-05-22T23:33:59.626Z,101355.92
2019-05-22T23:42:20.900Z,101350.55
2019-05-22T23:50:42.286Z,101345.27
2019-05-22T23:59:03.448Z,101350.36
